createdAt,value
2022-10-01T00:02:03.846Z,2.70
2022-10-01T00:04:31.587Z,3.00
2022-10-01T00:07:03.046Z,2.87
2022-10-01T00:09:32.519Z,3.27
2022-10-01T00:12:00.821Z,3.05
2022-10-01T00:14:29.504Z,3.10
2022-10-01T00:16:57.074Z,4.07
2022-10-01T00:19:24.756Z,3.10
2022-10-01T00:21:52.313Z,3.80
2022-10-01T00:24:19.906Z,3.20
2022-10-01T00:26:48.950Z,3.50
2022-10-01T00:29:16.817Z,2.90
2022-10-01T00:31:44.576Z,3.60
2022-10-01T00:34:14.938Z,3.97
2022-10-01T00:36:43.141Z,3.53
2022-10-01T00:39:12.167Z,3.93
2022-10-01T00:41:40.128Z,3.63
2022-10-01T00:44:30.094Z,4.07
2022-10-01T00:47:02.229Z,3.70
2022-10-01T00:49:33.659Z,3.60
2022-10-01T00:52:05.605Z,3.27
2022-10-01T00:54:38.617Z,3.40
2022-10-01T00:57:07.837Z,2.90
2022-10-01T00:59:37.741Z,3.60
2022-10-01T01:02:05.652Z,3.30
2022-10-01T01:04:33.650Z,3.30
2022-10-01T01:07:04.908Z,3.27
2022-10-01T01:09:35.994Z,3.60
2022-10-01T01:12:14.638Z,3.37
2022-10-01T01:14:52.666Z,3.30
2022-10-01T01:17:26.707Z,3.00
2022-10-01T01:20:11.904Z,3.17
2022-10-01T01:22:46.972Z,3.80
2022-10-01T01:25:19.592Z,3.37
2022-10-01T01:28:00.362Z,3.27
2022-10-01T01:30:28.067Z,3.53
2022-10-01T01:33:03.035Z,4.10
2022-10-01T01:35:35.674Z,3.13
2022-10-01T01:38:08.061Z,4.00
2022-10-01T01:40:38.128Z,3.53
2022-10-01T01:43:12.060Z,2.55
2022-10-01T01:45:41.119Z,3.50
2022-10-01T01:48:09.862Z,3.38
2022-10-01T01:50:49.963Z,2.90
2022-10-01T01:53:17.763Z,2.97
2022-10-01T01:55:49.258Z,3.20
2022-10-01T01:58:19.641Z,3.30
2022-10-01T02:00:52.397Z,3.40
2022-10-01T02:03:21.188Z,3.20
2022-10-01T02:05:59.331Z,2.90
2022-10-01T02:08:36.958Z,3.03
2022-10-01T02:11:19.685Z,3.03
2022-10-01T02:13:56.972Z,3.67
2022-10-01T02:16:31.552Z,3.57
2022-10-01T02:19:02.442Z,3.03
2022-10-01T02:21:36.152Z,3.67
2022-10-01T02:24:09.603Z,3.17
2022-10-01T02:26:40.406Z,4.00
2022-10-01T02:29:13.125Z,3.53
2022-10-01T02:31:42.336Z,3.63
2022-10-01T02:34:12.798Z,4.23
2022-10-01T02:36:42.346Z,3.10
2022-10-01T02:39:12.636Z,3.30
2022-10-01T02:41:40.372Z,3.00
2022-10-01T02:44:14.556Z,2.80
2022-10-01T02:46:47.423Z,2.57
2022-10-01T02:49:15.348Z,3.20
2022-10-01T02:51:54.226Z,3.07
2022-10-01T02:54:28.319Z,2.80
2022-10-01T02:57:14.355Z,3.00
2022-10-01T02:59:43.376Z,2.47
2022-10-01T03:02:11.763Z,3.27
2022-10-01T03:04:39.429Z,2.37
2022-10-01T03:07:07.007Z,2.40
2022-10-01T03:09:36.622Z,2.90
2022-10-01T03:12:06.470Z,2.40
2022-10-01T03:14:34.095Z,2.00
2022-10-01T03:17:02.985Z,2.40
2022-10-01T03:19:30.547Z,2.73
2022-10-01T03:21:58.169Z,2.70
2022-10-01T03:24:25.753Z,3.03
2022-10-01T03:26:53.326Z,2.50
2022-10-01T03:29:20.856Z,2.90
2022-10-01T03:31:48.441Z,2.50
2022-10-01T03:34:17.879Z,3.07
2022-10-01T03:36:45.694Z,2.90
2022-10-01T03:39:14.463Z,2.57
2022-10-01T03:41:42.111Z,2.33
2022-10-01T03:44:09.663Z,2.50
2022-10-01T03:46:37.372Z,2.93
2022-10-01T03:49:05.433Z,2.70
2022-10-01T03:51:36.458Z,2.53
2022-10-01T03:54:05.251Z,2.40
2022-10-01T03:56:33.196Z,2.70
2022-10-01T03:59:00.723Z,2.78
2022-10-01T04:01:28.839Z,2.80
2022-10-01T04:03:56.521Z,2.55
2022-10-01T04:06:24.215Z,3.10
2022-10-01T04:08:53.273Z,2.93
2022-10-01T04:11:21.289Z,2.83
2022-10-01T04:13:49.053Z,2.93
2022-10-01T04:16:17.361Z,2.70
2022-10-01T04:18:45.121Z,3.03
2022-10-01T04:21:13.361Z,3.97
2022-10-01T04:23:40.880Z,3.23
2022-10-01T04:26:10.189Z,3.58
2022-10-01T04:28:37.965Z,3.60
2022-10-01T04:31:23.195Z,2.90
2022-10-01T04:33:50.856Z,4.10
2022-10-01T04:36:18.407Z,3.23
2022-10-01T04:38:45.960Z,3.63
2022-10-01T04:41:15.130Z,3.27
2022-10-01T04:43:42.751Z,3.07
2022-10-01T04:46:10.431Z,3.70
2022-10-01T04:48:37.992Z,3.80
2022-10-01T04:51:05.675Z,3.40
2022-10-01T04:53:33.317Z,3.40
2022-10-01T04:56:00.897Z,4.17
2022-10-01T04:58:31.658Z,3.70
2022-10-01T05:01:01.981Z,3.50
2022-10-01T05:03:30.217Z,3.87
2022-10-01T05:05:57.797Z,3.40
2022-10-01T05:08:25.331Z,4.00
2022-10-01T05:10:53.046Z,4.30
2022-10-01T05:13:20.597Z,4.47
2022-10-01T05:15:51.987Z,3.23
2022-10-01T05:18:20.166Z,4.47
2022-10-01T05:20:47.738Z,3.30
2022-10-01T05:23:15.291Z,3.73
2022-10-01T05:25:45.048Z,3.57
2022-10-01T05:28:15.993Z,4.00
2022-10-01T05:30:47.466Z,3.07
2022-10-01T05:33:16.389Z,3.80
2022-10-01T05:35:44.415Z,3.57
2022-10-01T05:38:11.990Z,3.40
2022-10-01T05:40:39.675Z,3.40
2022-10-01T05:43:07.342Z,3.23
2022-10-01T05:45:35.800Z,4.00
2022-10-01T05:48:05.728Z,3.63
2022-10-01T05:50:39.132Z,3.43
2022-10-01T05:53:07.833Z,3.93
2022-10-01T05:55:35.763Z,3.90
2022-10-01T05:58:06.830Z,3.13
2022-10-01T06:00:35.674Z,3.30
2022-10-01T06:03:04.687Z,3.53
2022-10-01T06:05:35.320Z,3.00
2022-10-01T06:08:06.192Z,3.20
2022-10-01T06:10:33.989Z,3.97
2022-10-01T06:13:02.168Z,3.63
2022-10-01T06:15:34.218Z,3.20
2022-10-01T06:18:04.001Z,3.30
2022-10-01T06:20:31.906Z,3.30
2022-10-01T06:23:01.397Z,3.50
2022-10-01T06:25:30.703Z,3.43
2022-10-01T06:28:00.238Z,2.70
2022-10-01T06:30:30.378Z,4.73
2022-10-01T06:33:01.120Z,3.17
2022-10-01T06:35:28.731Z,3.13
2022-10-01T06:37:56.259Z,3.57
2022-10-01T06:40:25.413Z,2.63
2022-10-01T06:42:56.713Z,3.20
2022-10-01T06:45:24.615Z,2.73
2022-10-01T06:47:54.917Z,3.30
2022-10-01T06:50:23.866Z,3.20
2022-10-01T06:52:51.782Z,2.50
2022-10-01T06:55:20.787Z,2.93
2022-10-01T06:57:55.216Z,2.70
2022-10-01T07:00:23.582Z,2.67
2022-10-01T07:02:51.234Z,2.83
2022-10-01T07:05:19.437Z,2.67
2022-10-01T07:07:48.330Z,3.80
2022-10-01T07:10:17.479Z,3.00
2022-10-01T07:12:46.030Z,3.20
2022-10-01T07:15:14.870Z,3.10
2022-10-01T07:17:48.326Z,2.70
2022-10-01T07:20:17.781Z,3.00
2022-10-01T07:22:45.792Z,3.20
2022-10-01T07:25:14.222Z,2.50
2022-10-01T07:27:42.081Z,3.40
2022-10-01T07:30:10.921Z,2.20
2022-10-01T07:32:40.057Z,2.73
2022-10-01T07:35:09.109Z,3.05
2022-10-01T07:37:37.126Z,2.40
2022-10-01T07:40:07.485Z,2.15
2022-10-01T07:42:35.365Z,2.37
2022-10-01T07:45:06.436Z,2.30
2022-10-01T07:47:35.169Z,2.40
2022-10-01T07:50:04.475Z,2.50
2022-10-01T07:52:32.111Z,2.57
2022-10-01T07:54:59.619Z,2.27
2022-10-01T07:57:27.131Z,2.57
2022-10-01T07:59:56.026Z,2.63
2022-10-01T08:02:27.981Z,2.07
2022-10-01T08:05:13.573Z,2.27
2022-10-01T08:07:42.487Z,1.87
2022-10-01T08:10:10.399Z,2.77
2022-10-01T08:12:38.175Z,2.03
2022-10-01T08:15:10.237Z,1.93
2022-10-01T08:17:39.268Z,2.00
2022-10-01T08:20:09.719Z,1.93
2022-10-01T08:22:41.860Z,1.80
2022-10-01T08:25:11.568Z,2.20
2022-10-01T08:27:39.137Z,2.13
2022-10-01T08:30:07.888Z,1.70
2022-10-01T08:32:35.493Z,1.67
2022-10-01T08:35:05.085Z,1.43
2022-10-01T08:37:32.717Z,2.33
2022-10-01T08:40:00.405Z,1.50
2022-10-01T08:42:42.003Z,1.47
2022-10-01T08:45:14.872Z,1.20
2022-10-01T08:47:46.087Z,1.37
2022-10-01T08:50:17.568Z,1.73
2022-10-01T08:52:52.997Z,1.70
2022-10-01T08:55:23.662Z,1.80
2022-10-01T08:57:57.642Z,1.70
2022-10-01T09:00:26.079Z,1.70
2022-10-01T09:02:53.827Z,1.53
2022-10-01T09:05:25.681Z,1.60
2022-10-01T09:08:12.262Z,1.70
2022-10-01T09:10:46.353Z,1.80
2022-10-01T09:13:52.688Z,2.33
2022-10-01T09:16:26.443Z,1.53
2022-10-01T09:19:07.928Z,2.03
2022-10-01T09:21:47.249Z,1.40
2022-10-01T09:24:17.137Z,1.30
2022-10-01T09:26:48.776Z,1.50
2022-10-01T09:29:25.563Z,1.40
2022-10-01T09:31:55.855Z,1.90
2022-10-01T09:34:31.452Z,1.43
2022-10-01T09:37:10.957Z,1.42
2022-10-01T09:39:43.664Z,1.67
2022-10-01T09:42:11.609Z,1.58
2022-10-01T09:44:42.685Z,1.20
2022-10-01T09:47:18.371Z,1.53
2022-10-01T09:49:46.925Z,1.30
2022-10-01T09:52:19.978Z,1.47
2022-10-01T09:54:52.893Z,1.90
2022-10-01T09:57:26.421Z,1.93
2022-10-01T10:00:04.095Z,1.77
2022-10-01T10:02:34.139Z,1.40
2022-10-01T10:05:02.574Z,1.90
2022-10-01T10:07:32.341Z,1.63
2022-10-01T10:10:10.389Z,1.80
2022-10-01T10:12:38.202Z,1.50
2022-10-01T10:15:17.547Z,1.60
2022-10-01T10:17:49.601Z,1.63
2022-10-01T10:20:25.539Z,1.50
2022-10-01T10:22:53.799Z,1.70
2022-10-01T10:25:24.553Z,2.00
2022-10-01T10:27:55.825Z,1.57
2022-10-01T10:30:26.206Z,1.63
2022-10-01T10:33:02.308Z,1.77
2022-10-01T10:35:31.675Z,1.30
2022-10-01T10:38:01.413Z,1.55
2022-10-01T10:40:34.304Z,1.70
2022-10-01T10:43:02.280Z,1.93
2022-10-01T10:45:35.520Z,1.50
2022-10-01T10:48:14.808Z,1.77
2022-10-01T10:50:45.215Z,1.73
2022-10-01T10:53:22.111Z,2.37
2022-10-01T10:55:58.252Z,2.10
2022-10-01T10:58:27.963Z,2.33
2022-10-01T11:01:00.361Z,2.30
2022-10-01T11:03:30.832Z,2.60
2022-10-01T11:06:09.835Z,2.40
2022-10-01T11:08:38.079Z,2.50
2022-10-01T11:11:20.851Z,3.40
2022-10-01T11:14:08.360Z,3.00
2022-10-01T11:16:55.266Z,3.90
2022-10-01T11:19:46.597Z,4.83
2022-10-01T11:22:35.943Z,3.60
2022-10-01T11:25:41.431Z,3.00
2022-10-01T11:28:23.516Z,3.73
2022-10-01T11:31:00.006Z,3.60
2022-10-01T11:33:44.863Z,3.30
2022-10-01T11:36:24.873Z,3.50
2022-10-01T11:38:58.123Z,3.30
2022-10-01T11:41:31.666Z,2.87
2022-10-01T11:44:05.306Z,3.75
2022-10-01T11:46:50.193Z,3.93
2022-10-01T11:49:34.692Z,3.50
2022-10-01T11:52:12.228Z,3.00
2022-10-01T11:54:57.708Z,3.30
2022-10-01T11:57:45.315Z,2.80
2022-10-01T12:00:22.910Z,3.43
2022-10-01T12:03:00.148Z,3.40
2022-10-01T12:05:33.171Z,3.03
2022-10-01T12:08:08.956Z,3.30
2022-10-01T12:10:41.849Z,3.63
2022-10-01T12:13:22.428Z,3.30
2022-10-01T12:15:54.302Z,2.73
2022-10-01T12:18:28.844Z,3.53
2022-10-01T12:21:01.257Z,3.23
2022-10-01T12:23:32.442Z,4.10
2022-10-01T12:26:08.817Z,3.10
2022-10-01T12:28:50.673Z,3.00
2022-10-01T12:31:26.007Z,3.15
2022-10-01T12:34:06.375Z,2.53
2022-10-01T12:36:51.460Z,3.13
2022-10-01T12:39:34.170Z,2.60
2022-10-01T12:42:18.560Z,3.17
2022-10-01T12:44:57.626Z,2.83
2022-10-01T12:47:38.205Z,3.67
2022-10-01T12:50:20.900Z,3.20
2022-10-01T12:53:03.900Z,3.10
2022-10-01T12:55:50.140Z,2.33
2022-10-01T12:58:33.893Z,3.43
2022-10-01T13:01:11.843Z,3.00
2022-10-01T13:04:20.882Z,3.10
2022-10-01T13:06:59.054Z,2.80
2022-10-01T13:09:35.821Z,2.63
2022-10-01T13:12:17.961Z,2.97
2022-10-01T13:14:47.233Z,2.17
2022-10-01T13:17:24.353Z,2.93
2022-10-01T13:19:59.019Z,3.27
2022-10-01T13:22:36.026Z,2.47
2022-10-01T13:25:22.490Z,2.50
2022-10-01T13:27:59.365Z,2.38
2022-10-01T13:30:33.381Z,2.80
2022-10-01T13:33:02.168Z,2.70
2022-10-01T13:35:35.727Z,2.90
2022-10-01T13:38:16.443Z,3.10
2022-10-01T13:40:46.012Z,2.70
2022-10-01T13:43:19.106Z,2.50
2022-10-01T13:45:48.542Z,3.77
2022-10-01T13:48:20.217Z,2.87
2022-10-01T13:51:03.454Z,2.67
2022-10-01T13:53:33.813Z,2.75
2022-10-01T13:56:04.117Z,2.70
2022-10-01T13:58:40.375Z,3.13
2022-10-01T14:01:28.262Z,2.90
2022-10-01T14:04:06.141Z,2.53
2022-10-01T14:06:43.192Z,2.50
2022-10-01T14:09:17.761Z,2.87
2022-10-01T14:12:11.532Z,3.10
2022-10-01T14:14:59.371Z,1.30
2022-10-01T14:17:30.320Z,1.10
2022-10-01T14:19:58.352Z,2.80
2022-10-01T14:22:40.957Z,1.30
2022-10-01T14:25:27.920Z,0.90
2022-10-01T14:28:23.373Z,1.37
2022-10-01T14:30:58.158Z,1.23
2022-10-01T14:33:43.089Z,1.80
2022-10-01T14:36:14.580Z,4.50
2022-10-01T14:38:42.277Z,1.80
2022-10-01T14:41:18.337Z,1.17
2022-10-01T14:43:47.866Z,1.33
2022-10-01T14:46:20.347Z,1.10
2022-10-01T14:48:58.250Z,1.20
2022-10-01T14:51:28.876Z,1.50
2022-10-01T14:54:00.094Z,0.93
2022-10-01T14:56:29.698Z,1.20
2022-10-01T14:59:03.214Z,1.00
2022-10-01T15:01:30.991Z,0.80
2022-10-01T15:03:59.947Z,0.87
2022-10-01T15:06:42.087Z,1.07
2022-10-01T15:09:15.470Z,1.03
2022-10-01T15:11:45.795Z,1.00
2022-10-01T15:14:19.308Z,0.83
2022-10-01T15:16:49.274Z,1.17
2022-10-01T15:19:20.911Z,0.87
2022-10-01T15:21:55.975Z,0.93
2022-10-01T15:24:27.056Z,1.07
2022-10-01T15:26:57.029Z,1.20
2022-10-01T15:29:27.937Z,1.33
2022-10-01T15:32:03.036Z,1.30
2022-10-01T15:34:31.487Z,0.73
2022-10-01T15:37:02.877Z,0.80
2022-10-01T15:39:33.403Z,1.27
2022-10-01T15:42:08.669Z,0.83
2022-10-01T15:44:45.423Z,1.10
2022-10-01T15:47:37.643Z,1.20
2022-10-01T15:50:18.188Z,0.85
2022-10-01T15:53:03.147Z,1.40
2022-10-01T15:55:37.498Z,1.10
2022-10-01T15:58:20.127Z,1.40
2022-10-01T16:01:01.892Z,1.20
2022-10-01T16:03:38.752Z,1.80
2022-10-01T16:06:08.899Z,3.63
2022-10-01T16:08:50.160Z,3.03
2022-10-01T16:11:23.539Z,5.93
2022-10-01T16:13:52.840Z,4.30
2022-10-01T16:16:29.938Z,4.70
2022-10-01T16:19:00.217Z,3.20
2022-10-01T16:21:29.306Z,4.00
2022-10-01T16:23:57.824Z,4.23
2022-10-01T16:26:45.164Z,3.80
2022-10-01T16:29:33.773Z,3.80
2022-10-01T16:32:03.597Z,4.73
2022-10-01T16:34:31.903Z,3.63
2022-10-01T16:37:01.976Z,2.90
2022-10-01T16:39:29.694Z,3.30
2022-10-01T16:42:22.117Z,2.37
2022-10-01T16:44:48.353Z,3.30
2022-10-01T16:47:17.569Z,2.50
2022-10-01T16:49:47.067Z,3.57
2022-10-01T16:52:16.823Z,2.90
2022-10-01T16:54:47.314Z,2.53
2022-10-01T16:57:16.609Z,2.57
2022-10-01T16:59:44.853Z,2.25
2022-10-01T17:02:14.532Z,2.20
2022-10-01T17:04:43.526Z,2.50
2022-10-01T17:07:11.137Z,2.23
2022-10-01T17:09:39.685Z,1.77
2022-10-01T17:12:07.386Z,2.10
2022-10-01T17:14:35.185Z,1.70
2022-10-01T17:17:03.046Z,2.30
2022-10-01T17:19:30.873Z,1.80
2022-10-01T17:22:00.120Z,1.97
2022-10-01T17:24:27.844Z,2.07
2022-10-01T17:26:55.428Z,2.77
2022-10-01T17:29:22.993Z,3.20
2022-10-01T17:31:53.280Z,6.73
2022-10-01T17:34:21.395Z,2.63
2022-10-01T17:36:49.124Z,2.00
2022-10-01T17:39:19.323Z,2.20
2022-10-01T17:41:47.230Z,2.33
2022-10-01T17:44:14.937Z,2.90
2022-10-01T17:46:42.705Z,1.90
2022-10-01T17:49:10.320Z,2.50
2022-10-01T17:51:38.121Z,3.33
2022-10-01T17:54:05.786Z,2.90
2022-10-01T17:56:40.691Z,1.90
2022-10-01T17:59:08.351Z,2.83
2022-10-01T18:01:38.948Z,6.57
2022-10-01T18:04:06.982Z,4.80
2022-10-01T18:06:34.962Z,6.70
2022-10-01T18:09:08.345Z,4.87
2022-10-01T18:11:40.133Z,3.80
2022-10-01T18:14:10.881Z,2.83
2022-10-01T18:16:41.606Z,2.50
2022-10-01T18:19:52.390Z,1.93
2022-10-01T18:22:13.349Z,2.00
2022-10-01T18:24:42.061Z,1.90
2022-10-01T18:27:11.508Z,2.87
2022-10-01T18:29:39.984Z,2.30
2022-10-01T18:32:15.437Z,2.40
2022-10-01T18:34:51.501Z,3.00
2022-10-01T18:37:31.075Z,2.00
2022-10-01T18:40:05.645Z,2.10
2022-10-01T18:42:46.724Z,1.90
2022-10-01T18:45:19.572Z,1.67
2022-10-01T18:48:03.832Z,1.87
2022-10-01T18:50:40.971Z,2.47
2022-10-01T18:53:30.767Z,2.00
2022-10-01T18:56:15.454Z,1.47
2022-10-01T18:59:07.969Z,1.50
2022-10-01T19:01:47.932Z,1.50
2022-10-01T19:04:41.533Z,1.80
2022-10-01T19:07:22.275Z,1.53
2022-10-01T19:10:03.707Z,1.83
2022-10-01T19:12:50.859Z,1.70
2022-10-01T19:15:35.576Z,1.70
2022-10-01T19:18:33.025Z,1.47
2022-10-01T19:21:11.325Z,1.40
2022-10-01T19:24:15.168Z,1.70
2022-10-01T19:26:51.302Z,1.33
2022-10-01T19:29:38.480Z,1.47
2022-10-01T19:32:14.288Z,1.80
2022-10-01T19:34:47.416Z,1.50
2022-10-01T19:37:21.101Z,1.80
2022-10-01T19:39:52.167Z,1.60
2022-10-01T19:42:24.401Z,1.60
2022-10-01T19:44:58.832Z,2.13
2022-10-01T19:47:37.823Z,1.60
2022-10-01T19:50:19.986Z,1.87
2022-10-01T19:52:51.770Z,1.80
2022-10-01T19:55:23.168Z,2.37
2022-10-01T19:57:50.906Z,3.77
2022-10-01T20:00:24.282Z,2.27
2022-10-01T20:03:05.457Z,3.00
2022-10-01T20:05:41.213Z,3.08
2022-10-01T20:08:17.813Z,2.30
2022-10-01T20:11:03.914Z,2.57
2022-10-01T20:13:58.173Z,2.40
2022-10-01T20:16:29.671Z,2.13
2022-10-01T20:19:04.916Z,2.30
2022-10-01T20:21:55.293Z,2.50
2022-10-01T20:24:38.494Z,3.50
2022-10-01T20:27:20.716Z,2.40
2022-10-01T20:29:53.495Z,2.17
2022-10-01T20:32:32.326Z,1.63
2022-10-01T20:35:13.092Z,2.40
2022-10-01T20:37:56.903Z,2.70
2022-10-01T20:40:29.353Z,2.20
2022-10-01T20:43:04.181Z,2.40
2022-10-01T20:45:35.705Z,2.10
2022-10-01T20:48:08.420Z,2.40
2022-10-01T20:50:43.683Z,2.50
2022-10-01T20:53:20.097Z,2.00
2022-10-01T20:55:54.102Z,2.27
2022-10-01T20:58:26.071Z,2.30
2022-10-01T21:00:59.324Z,2.03
2022-10-01T21:03:33.212Z,2.33
2022-10-01T21:06:08.453Z,1.67
2022-10-01T21:08:45.044Z,2.35
2022-10-01T21:11:21.211Z,2.33
2022-10-01T21:13:59.601Z,3.10
2022-10-01T21:16:54.712Z,2.60
2022-10-01T21:19:33.597Z,2.70
2022-10-01T21:22:15.829Z,1.70
2022-10-01T21:24:56.560Z,2.10
2022-10-01T21:27:47.677Z,1.93
2022-10-01T21:30:20.506Z,1.63
2022-10-01T21:33:15.021Z,2.50
2022-10-01T21:35:54.926Z,2.10
2022-10-01T21:38:31.969Z,1.90
2022-10-01T21:41:16.579Z,1.80
2022-10-01T21:44:01.025Z,2.60
2022-10-01T21:46:38.441Z,1.90
2022-10-01T21:49:14.069Z,2.13
2022-10-01T21:51:56.080Z,2.00
2022-10-01T21:55:01.806Z,2.07
2022-10-01T21:57:55.440Z,1.48
2022-10-01T22:00:28.922Z,2.33
2022-10-01T22:03:10.539Z,2.60
2022-10-01T22:05:46.064Z,2.83
2022-10-01T22:08:26.856Z,2.80
2022-10-01T22:10:59.953Z,1.87
2022-10-01T22:13:30.898Z,2.30
2022-10-01T22:16:03.435Z,2.10
2022-10-01T22:18:36.113Z,2.67
2022-10-01T22:21:15.493Z,2.33
2022-10-01T22:23:48.227Z,2.33
2022-10-01T22:26:21.711Z,2.60
2022-10-01T22:28:53.193Z,2.60
2022-10-01T22:31:26.178Z,2.47
2022-10-01T22:33:58.344Z,2.53
2022-10-01T22:36:34.840Z,2.22
2022-10-01T22:39:08.197Z,2.30
2022-10-01T22:41:44.241Z,2.53
2022-10-01T22:44:15.001Z,2.80
2022-10-01T22:47:10.324Z,1.97
2022-10-01T22:49:50.412Z,3.00
2022-10-01T22:52:27.423Z,2.10
2022-10-01T22:55:07.719Z,3.40
2022-10-01T22:58:13.887Z,2.60
2022-10-01T23:00:49.128Z,2.60
2022-10-01T23:03:24.180Z,2.70
2022-10-01T23:06:05.616Z,2.67
2022-10-01T23:08:40.386Z,2.30
2022-10-01T23:11:19.133Z,2.23
2022-10-01T23:13:59.211Z,3.00
2022-10-01T23:16:39.806Z,2.60
2022-10-01T23:19:23.484Z,2.50
2022-10-01T23:21:57.452Z,3.20
2022-10-01T23:24:41.742Z,2.70
2022-10-01T23:27:18.064Z,2.00
2022-10-01T23:30:07.389Z,2.70
2022-10-01T23:32:57.562Z,2.37
2022-10-01T23:35:34.722Z,2.07
2022-10-01T23:38:14.143Z,1.90
2022-10-01T23:40:48.054Z,2.13
2022-10-01T23:43:23.309Z,2.50
2022-10-01T23:46:00.891Z,2.57
2022-10-01T23:48:35.191Z,1.80
2022-10-01T23:51:07.521Z,2.17
2022-10-01T23:53:42.725Z,2.17
2022-10-01T23:56:32.500Z,1.70
2022-10-01T23:59:07.613Z,2.00
